createdAt,value
2018-01-27T00:01:56.481Z,20.42
2018-01-27T00:04:27.798Z,20.13
2018-01-27T00:06:58.199Z,20.40
2018-01-27T00:09:29.316Z,20.16
2018-01-27T00:12:00.490Z,20.08
2018-01-27T00:14:30.812Z,19.72
2018-01-27T00:17:01.544Z,19.54
2018-01-27T00:19:31.833Z,19.90
2018-01-27T00:22:02.158Z,20.06
2018-01-27T00:24:32.561Z,19.83
2018-01-27T00:27:02.843Z,19.73
2018-01-27T00:29:33.186Z,19.56
2018-01-27T00:32:03.494Z,19.37
2018-01-27T00:34:35.523Z,19.70
2018-01-27T00:37:05.816Z,19.57
2018-01-27T00:39:36.169Z,19.30
2018-01-27T00:42:06.464Z,19.39
2018-01-27T00:44:36.881Z,19.16
2018-01-27T00:47:07.208Z,19.33
2018-01-27T00:49:37.806Z,18.93
2018-01-27T00:52:08.164Z,19.22
2018-01-27T00:54:38.454Z,19.43
2018-01-27T00:57:08.780Z,19.45
2018-01-27T00:59:39.143Z,19.12
2018-01-27T01:02:09.583Z,19.07
2018-01-27T01:04:40.450Z,18.83
2018-01-27T01:07:11.361Z,18.75
2018-01-27T01:09:44.216Z,18.99
2018-01-27T01:12:14.961Z,18.99
2018-01-27T01:17:19.980Z,18.70
2018-01-27T01:19:50.476Z,18.58
2018-01-27T01:22:20.806Z,18.77
2018-01-27T01:24:51.561Z,18.63
2018-01-27T01:27:22.475Z,18.37
2018-01-27T01:29:52.851Z,18.52
2018-01-27T01:32:23.398Z,18.07
2018-01-27T01:34:53.704Z,18.09
2018-01-27T01:37:24.274Z,18.36
2018-01-27T01:39:54.636Z,18.49
2018-01-27T01:42:29.949Z,18.30
2018-01-27T01:45:00.304Z,17.63
2018-01-27T01:47:30.604Z,17.61
2018-01-27T01:50:00.898Z,17.69
2018-01-27T01:52:31.148Z,17.97
2018-01-27T01:55:01.397Z,17.42
2018-01-27T01:57:32.659Z,17.77
2018-01-27T02:00:02.934Z,17.36
2018-01-27T02:02:33.206Z,17.19
2018-01-27T02:05:03.468Z,17.44
2018-01-27T02:07:34.652Z,17.32
2018-01-27T02:10:05.832Z,17.24
2018-01-27T02:12:36.123Z,17.36
2018-01-27T02:15:06.570Z,17.49
2018-01-27T02:17:37.435Z,17.31
2018-01-27T02:20:08.285Z,17.52
2018-01-27T02:22:39.667Z,17.18
2018-01-27T02:25:10.652Z,17.20
2018-01-27T02:27:42.090Z,17.05
2018-01-27T02:30:12.575Z,16.86
2018-01-27T02:32:43.798Z,16.87
2018-01-27T02:35:15.769Z,17.28
2018-01-27T02:37:46.203Z,17.07
2018-01-27T02:40:16.464Z,17.16
2018-01-27T02:42:46.821Z,17.19
2018-01-27T02:45:17.092Z,17.36
2018-01-27T02:47:47.529Z,17.23
2018-01-27T02:50:17.829Z,17.05
2018-01-27T02:52:48.135Z,17.43
2018-01-27T02:55:18.391Z,17.50
2018-01-27T02:57:48.639Z,17.18
2018-01-27T03:00:19.056Z,17.21
2018-01-27T03:02:49.374Z,16.94
2018-01-27T03:05:19.784Z,17.00
2018-01-27T03:07:50.113Z,17.19
2018-01-27T03:10:20.445Z,17.07
2018-01-27T03:12:50.948Z,16.66
2018-01-27T03:15:21.293Z,16.79
2018-01-27T03:17:51.615Z,16.88
2018-01-27T03:20:23.151Z,16.70
2018-01-27T03:22:55.886Z,16.68
2018-01-27T03:25:26.233Z,16.66
2018-01-27T03:27:57.237Z,16.81
2018-01-27T03:30:27.782Z,16.75
2018-01-27T03:32:58.720Z,16.71
2018-01-27T03:35:30.570Z,16.97
2018-01-27T03:38:01.857Z,16.77
2018-01-27T03:40:33.602Z,16.26
2018-01-27T03:43:03.989Z,16.24
2018-01-27T03:45:34.407Z,16.26
2018-01-27T03:48:04.861Z,16.46
2018-01-27T03:50:35.290Z,16.97
2018-01-27T03:53:05.620Z,16.58
2018-01-27T03:55:35.965Z,16.08
2018-01-27T03:58:06.360Z,15.20
2018-01-27T04:00:36.671Z,15.74
2018-01-27T04:03:07.001Z,16.32
2018-01-27T04:05:37.365Z,15.97
2018-01-27T04:08:07.689Z,15.83
2018-01-27T04:10:37.979Z,15.95
2018-01-27T04:13:08.324Z,16.08
2018-01-27T04:15:38.645Z,16.38
2018-01-27T04:18:09.032Z,16.05
2018-01-27T04:20:39.477Z,16.45
2018-01-27T04:23:09.855Z,15.92
2018-01-27T04:25:40.933Z,16.28
2018-01-27T04:28:11.295Z,15.30
2018-01-27T04:30:41.557Z,13.99
2018-01-27T04:33:11.813Z,15.35
2018-01-27T04:35:42.702Z,15.91
2018-01-27T04:38:13.186Z,15.97
2018-01-27T04:40:43.571Z,16.26
2018-01-27T04:43:15.220Z,16.26
2018-01-27T04:45:45.538Z,15.77
2018-01-27T04:48:15.861Z,15.66
2018-01-27T04:50:46.147Z,14.28
2018-01-27T04:53:16.431Z,14.33
2018-01-27T04:55:46.686Z,13.80
2018-01-27T04:58:17.104Z,13.26
2018-01-27T05:00:47.458Z,13.52
2018-01-27T05:03:17.793Z,14.05
2018-01-27T05:05:48.152Z,14.46
2018-01-27T05:08:18.476Z,14.84
2018-01-27T05:10:48.750Z,14.43
2018-01-27T05:13:19.234Z,14.96
2018-01-27T05:15:49.573Z,15.24
2018-01-27T05:18:19.874Z,15.37
2018-01-27T05:20:50.147Z,14.82
2018-01-27T05:23:20.478Z,15.41
2018-01-27T05:25:50.773Z,14.78
2018-01-27T05:28:21.071Z,13.98
2018-01-27T05:30:51.413Z,13.89
2018-01-27T05:33:21.727Z,13.66
2018-01-27T05:35:52.017Z,14.18
2018-01-27T05:38:22.343Z,14.86
2018-01-27T05:40:52.712Z,15.15
2018-01-27T05:43:23.050Z,14.44
2018-01-27T05:45:53.333Z,14.17
2018-01-27T05:48:24.175Z,13.54
2018-01-27T05:50:54.467Z,14.14
2018-01-27T05:53:24.804Z,14.59
2018-01-27T05:55:55.180Z,14.31
2018-01-27T05:58:25.533Z,13.68
2018-01-27T06:00:55.793Z,14.32
2018-01-27T06:03:26.094Z,14.85
2018-01-27T06:05:56.363Z,13.67
2018-01-27T06:08:26.811Z,13.92
2018-01-27T06:10:57.188Z,13.66
2018-01-27T06:13:27.496Z,13.94
2018-01-27T06:15:58.875Z,14.59
2018-01-27T06:18:30.648Z,14.86
2018-01-27T06:21:02.203Z,14.64
2018-01-27T06:23:34.199Z,14.57
2018-01-27T06:26:05.488Z,14.46
2018-01-27T06:28:36.611Z,14.53
2018-01-27T06:31:07.960Z,14.70
2018-01-27T06:33:39.130Z,14.69
2018-01-27T06:36:10.474Z,14.79
2018-01-27T06:38:42.257Z,14.07
2018-01-27T06:41:13.169Z,13.77
2018-01-27T06:43:44.285Z,13.85
2018-01-27T06:46:15.252Z,14.03
2018-01-27T06:48:46.577Z,14.35
2018-01-27T06:51:17.464Z,14.39
2018-01-27T06:53:48.903Z,14.55
2018-01-27T06:56:19.988Z,14.44
2018-01-27T06:58:51.375Z,14.68
2018-01-27T07:01:22.539Z,14.68
2018-01-27T07:03:53.664Z,14.65
2018-01-27T07:06:25.033Z,14.28
2018-01-27T07:08:56.159Z,14.18
2018-01-27T07:11:27.713Z,14.30
2018-01-27T07:13:59.266Z,14.49
2018-01-27T07:16:30.332Z,14.44
2018-01-27T07:19:01.578Z,14.22
2018-01-27T07:21:32.702Z,14.46
2018-01-27T07:24:03.998Z,14.63
2018-01-27T07:26:35.004Z,14.57
2018-01-27T07:29:06.351Z,14.53
2018-01-27T07:31:37.598Z,14.57
2018-01-27T07:34:08.821Z,14.51
2018-01-27T07:36:39.945Z,14.56
2018-01-27T07:39:10.964Z,14.53
2018-01-27T07:41:42.205Z,14.50
2018-01-27T07:44:13.608Z,14.62
2018-01-27T07:46:44.740Z,13.85
2018-01-27T07:49:15.726Z,13.78
2018-01-27T07:51:46.838Z,13.97
2018-01-27T07:54:18.581Z,13.92
2018-01-27T07:56:49.658Z,14.05
2018-01-27T07:59:21.308Z,13.72
2018-01-27T08:01:53.409Z,13.56
2018-01-27T08:04:24.385Z,12.97
2018-01-27T08:06:55.726Z,12.57
2018-01-27T08:09:26.693Z,12.99
2018-01-27T08:11:57.584Z,12.35
2018-01-27T08:14:28.981Z,12.74
2018-01-27T08:17:00.062Z,13.50
2018-01-27T08:19:31.040Z,13.63
2018-01-27T08:22:02.214Z,13.79
2018-01-27T08:24:33.530Z,13.76
2018-01-27T08:27:04.687Z,13.73
2018-01-27T08:29:36.029Z,13.80
2018-01-27T08:32:07.376Z,13.88
2018-01-27T08:34:38.557Z,14.03
2018-01-27T08:37:10.109Z,14.10
2018-01-27T08:39:41.273Z,13.97
2018-01-27T08:42:12.785Z,14.03
2018-01-27T08:44:43.904Z,14.09
2018-01-27T08:47:15.149Z,13.44
2018-01-27T08:49:46.153Z,13.11
2018-01-27T08:52:17.377Z,13.02
2018-01-27T08:54:48.909Z,13.48
2018-01-27T08:57:20.038Z,13.64
2018-01-27T08:59:51.360Z,13.66
2018-01-27T09:02:22.315Z,13.69
2018-01-27T09:04:53.299Z,13.38
2018-01-27T09:07:24.665Z,13.30
2018-01-27T09:09:55.811Z,13.54
2018-01-27T09:12:27.378Z,13.42
2018-01-27T09:14:58.913Z,13.06
2018-01-27T09:17:30.259Z,12.38
2018-01-27T09:20:01.606Z,12.26
2018-01-27T09:22:33.145Z,12.44
2018-01-27T09:25:05.561Z,12.95
2018-01-27T09:27:36.644Z,13.17
2018-01-27T09:30:08.072Z,13.18
2018-01-27T09:32:39.540Z,13.42
2018-01-27T09:35:10.572Z,13.35
2018-01-27T09:37:42.286Z,13.64
2018-01-27T09:40:13.384Z,13.11
2018-01-27T09:42:44.924Z,13.06
2018-01-27T09:45:16.292Z,13.41
2018-01-27T09:47:47.519Z,13.09
2018-01-27T09:50:18.370Z,13.07
2018-01-27T09:52:49.309Z,13.25
2018-01-27T09:55:20.301Z,11.58
2018-01-27T09:57:51.613Z,11.21
2018-01-27T10:00:22.488Z,11.04
2018-01-27T10:02:53.451Z,11.74
2018-01-27T10:05:24.733Z,11.80
2018-01-27T10:07:56.025Z,11.28
2018-01-27T10:10:27.565Z,10.89
2018-01-27T10:12:58.640Z,10.47
2018-01-27T10:15:29.577Z,9.84
2018-01-27T10:18:00.516Z,10.43
2018-01-27T10:20:31.639Z,9.72
2018-01-27T10:23:03.172Z,10.26
2018-01-27T10:25:34.972Z,10.93
2018-01-27T10:28:06.273Z,11.02
2018-01-27T10:30:37.925Z,11.67
2018-01-27T10:33:12.728Z,11.86
2018-01-27T10:35:45.378Z,12.29
2018-01-27T10:38:17.110Z,12.61
2018-01-27T10:40:48.670Z,12.59
2018-01-27T10:43:20.414Z,12.55
2018-01-27T10:45:51.976Z,12.56
2018-01-27T10:48:23.321Z,12.69
2018-01-27T10:50:55.059Z,12.67
2018-01-27T10:53:26.655Z,12.71
2018-01-27T10:55:57.983Z,12.87
2018-01-27T10:58:29.257Z,12.59
2018-01-27T11:01:00.702Z,12.64
2018-01-27T11:03:32.227Z,12.68
2018-01-27T11:06:03.533Z,12.75
2018-01-27T11:08:34.727Z,12.48
2018-01-27T11:11:06.428Z,11.76
2018-01-27T11:13:37.830Z,10.71
2018-01-27T11:16:09.385Z,10.55
2018-01-27T11:18:40.492Z,10.64
2018-01-27T11:21:11.882Z,10.85
2018-01-27T11:23:43.569Z,11.04
2018-01-27T11:26:14.988Z,10.98
2018-01-27T11:28:46.481Z,11.68
2018-01-27T11:31:17.822Z,11.09
2018-01-27T11:33:49.188Z,11.54
2018-01-27T11:36:20.316Z,12.26
2018-01-27T11:38:51.947Z,11.95
2018-01-27T11:41:23.035Z,12.05
2018-01-27T11:43:54.850Z,12.15
2018-01-27T11:46:26.127Z,12.29
2018-01-27T11:48:57.477Z,12.28
2018-01-27T11:51:28.688Z,12.27
2018-01-27T11:54:00.169Z,12.28
2018-01-27T11:56:31.770Z,12.35
2018-01-27T11:59:02.873Z,12.05
2018-01-27T12:01:34.912Z,11.55
2018-01-27T12:04:06.396Z,11.42
2018-01-27T12:06:37.981Z,11.46
2018-01-27T12:09:09.287Z,11.66
2018-01-27T12:11:40.431Z,11.79
2018-01-27T12:14:11.646Z,11.89
2018-01-27T12:16:42.909Z,12.02
2018-01-27T12:19:14.097Z,11.65
2018-01-27T12:21:45.228Z,11.77
2018-01-27T12:24:16.756Z,11.89
2018-01-27T12:26:48.103Z,11.80
2018-01-27T12:29:19.268Z,12.07
2018-01-27T12:31:51.010Z,12.24
2018-01-27T12:34:22.088Z,12.16
2018-01-27T12:36:53.337Z,12.35
2018-01-27T12:39:24.922Z,12.32
2018-01-27T12:41:56.192Z,12.45
2018-01-27T12:44:27.567Z,12.43
2018-01-27T12:46:58.907Z,11.71
2018-01-27T12:49:30.063Z,11.96
2018-01-27T12:52:01.189Z,11.98
2018-01-27T12:54:32.565Z,11.78
2018-01-27T12:57:03.903Z,11.71
2018-01-27T12:59:35.028Z,12.06
2018-01-27T13:02:06.997Z,11.53
2018-01-27T13:04:37.828Z,11.70
2018-01-27T13:07:08.871Z,11.87
2018-01-27T13:09:40.021Z,11.95
2018-01-27T13:12:11.363Z,11.59
2018-01-27T13:14:42.774Z,11.07
2018-01-27T13:17:14.118Z,11.18
2018-01-27T13:19:45.220Z,11.71
2018-01-27T13:22:16.609Z,11.90
2018-01-27T13:24:47.735Z,11.91
2018-01-27T13:27:19.243Z,11.86
2018-01-27T13:29:50.606Z,11.81
2018-01-27T13:32:21.989Z,11.92
2018-01-27T13:34:53.522Z,11.82
2018-01-27T13:37:25.272Z,11.13
2018-01-27T13:39:56.373Z,9.24
2018-01-27T13:42:27.590Z,9.98
2018-01-27T13:44:59.297Z,10.95
2018-01-27T13:47:30.461Z,11.50
2018-01-27T13:50:01.629Z,11.73
2018-01-27T13:52:32.729Z,11.72
2018-01-27T13:55:03.895Z,11.78
2018-01-27T13:57:34.780Z,11.30
2018-01-27T14:00:05.813Z,11.23
2018-01-27T14:02:36.906Z,11.40
2018-01-27T14:05:08.044Z,11.63
2018-01-27T14:07:39.032Z,11.75
2018-01-27T14:10:10.103Z,11.77
2018-01-27T14:12:41.708Z,11.69
2018-01-27T14:15:12.896Z,11.21
2018-01-27T14:17:44.024Z,11.18
2018-01-27T14:20:15.163Z,11.48
2018-01-27T14:22:46.206Z,11.53
2018-01-27T14:25:17.452Z,11.66
2018-01-27T14:27:49.004Z,11.68
2018-01-27T14:30:20.059Z,11.77
2018-01-27T14:32:50.992Z,11.67
2018-01-27T14:35:22.008Z,11.53
2018-01-27T14:37:53.390Z,11.37
2018-01-27T14:40:24.723Z,11.32
2018-01-27T14:42:55.793Z,11.39
2018-01-27T14:45:27.023Z,11.34
2018-01-27T14:47:58.592Z,11.28
2018-01-27T14:50:29.944Z,10.91
2018-01-27T14:53:01.016Z,11.28
2018-01-27T14:55:32.446Z,11.42
2018-01-27T14:58:03.613Z,11.49
2018-01-27T15:00:34.598Z,11.47
2018-01-27T15:03:06.350Z,10.87
2018-01-27T15:05:37.620Z,11.18
2018-01-27T15:08:08.995Z,10.94
2018-01-27T15:10:40.350Z,10.94
2018-01-27T15:13:11.487Z,10.54
2018-01-27T15:15:42.771Z,10.45
2018-01-27T15:18:14.552Z,10.75
2018-01-27T15:20:45.601Z,11.23
2018-01-27T15:23:16.639Z,11.32
2018-01-27T15:25:47.996Z,11.39
2018-01-27T15:28:19.041Z,11.56
2018-01-27T15:30:50.078Z,11.54
2018-01-27T15:33:21.834Z,11.13
2018-01-27T15:35:52.904Z,11.35
2018-01-27T15:38:24.083Z,11.27
2018-01-27T15:40:55.204Z,11.27
2018-01-27T15:43:26.478Z,11.29
2018-01-27T15:45:58.172Z,11.08
2018-01-27T15:48:29.220Z,11.39
2018-01-27T15:51:00.394Z,11.74
2018-01-27T15:53:31.122Z,11.73
2018-01-27T15:56:02.293Z,11.94
2018-01-27T15:58:34.512Z,12.13
2018-01-27T16:01:06.033Z,11.91
2018-01-27T16:03:37.997Z,11.89
2018-01-27T16:06:09.320Z,12.04
2018-01-27T16:08:40.649Z,11.65
2018-01-27T16:11:12.482Z,11.10
2018-01-27T16:13:43.376Z,11.38
2018-01-27T16:16:15.129Z,11.86
2018-01-27T16:18:46.078Z,12.40
2018-01-27T16:21:17.487Z,12.49
2018-01-27T16:23:48.665Z,12.52
2018-01-27T16:26:20.909Z,11.46
2018-01-27T16:28:52.102Z,11.56
2018-01-27T16:31:23.547Z,12.38
2018-01-27T16:33:55.687Z,13.02
2018-01-27T16:36:26.609Z,12.86
2018-01-27T16:38:58.286Z,12.90
2018-01-27T16:41:29.371Z,12.74
2018-01-27T16:44:01.400Z,12.62
2018-01-27T16:46:33.018Z,14.18
2018-01-27T16:49:04.582Z,13.71
2018-01-27T16:51:36.903Z,13.30
2018-01-27T16:54:08.389Z,13.09
2018-01-27T16:56:39.503Z,13.16
2018-01-27T16:59:11.065Z,14.12
2018-01-27T17:01:42.469Z,14.94
2018-01-27T17:04:13.966Z,14.32
2018-01-27T17:06:45.236Z,14.88
2018-01-27T17:09:16.921Z,14.56
2018-01-27T17:11:48.129Z,14.54
2018-01-27T17:14:19.599Z,14.76
2018-01-27T17:16:50.415Z,14.81
2018-01-27T17:19:21.779Z,14.44
2018-01-27T17:21:53.105Z,14.60
2018-01-27T17:24:24.493Z,14.83
2018-01-27T17:26:55.753Z,15.14
2018-01-27T17:29:26.544Z,15.23
2018-01-27T17:31:57.768Z,15.07
2018-01-27T17:34:29.202Z,15.46
2018-01-27T17:37:00.813Z,15.09
2018-01-27T17:39:32.309Z,15.52
2018-01-27T17:42:04.040Z,15.60
2018-01-27T17:44:35.271Z,15.88
2018-01-27T17:47:06.393Z,16.09
2018-01-27T17:49:37.961Z,16.89
2018-01-27T17:52:09.269Z,16.71
2018-01-27T17:54:40.694Z,16.70
2018-01-27T17:57:11.998Z,16.13
2018-01-27T17:59:43.823Z,16.64
2018-01-27T18:02:15.381Z,17.07
2018-01-27T18:04:46.862Z,16.92
2018-01-27T18:07:18.000Z,17.27
2018-01-27T18:09:49.084Z,17.07
2018-01-27T18:12:20.347Z,17.49
2018-01-27T18:14:51.468Z,18.34
2018-01-27T18:17:22.940Z,18.09
2018-01-27T18:19:54.829Z,18.23
2018-01-27T18:22:26.250Z,18.82
2018-01-27T18:24:58.092Z,18.31
2018-01-27T18:27:29.363Z,19.62
2018-01-27T18:30:00.683Z,19.75
2018-01-27T18:32:32.271Z,19.98
2018-01-27T18:35:03.900Z,20.30
2018-01-27T18:37:35.596Z,20.83
2018-01-27T18:40:06.965Z,20.15
2018-01-27T18:42:38.606Z,20.94
2018-01-27T18:45:09.874Z,21.11
2018-01-27T18:47:41.230Z,21.10
2018-01-27T18:50:13.274Z,21.41
2018-01-27T18:52:45.185Z,21.51
2018-01-27T18:55:16.783Z,21.57
2018-01-27T18:57:48.648Z,22.27
2018-01-27T19:00:20.580Z,23.21
2018-01-27T19:02:52.255Z,24.97
2018-01-27T19:05:24.005Z,25.04
2018-01-27T19:07:55.482Z,25.13
2018-01-27T19:10:26.927Z,24.97
2018-01-27T19:12:58.164Z,25.56
2018-01-27T19:20:23.916Z,23.98
2018-01-27T19:22:55.063Z,23.88
2018-01-27T19:25:26.310Z,23.87
2018-01-27T19:27:57.740Z,23.79
2018-01-27T19:30:29.288Z,23.74
2018-01-27T19:33:00.349Z,23.65
2018-01-27T19:35:31.745Z,23.59
2018-01-27T19:38:02.957Z,23.59
2018-01-27T19:40:34.193Z,23.56
2018-01-27T19:43:05.171Z,23.55
2018-01-27T19:45:36.428Z,23.56
2018-01-27T19:48:07.533Z,23.53
2018-01-27T19:50:39.064Z,23.51
2018-01-27T19:53:10.206Z,23.51
2018-01-27T19:55:41.764Z,23.60
2018-01-27T19:58:13.020Z,23.70
2018-01-27T20:00:44.283Z,23.71
2018-01-27T20:03:15.412Z,23.66
2018-01-27T20:05:46.899Z,23.63
2018-01-27T20:08:18.042Z,23.61
2018-01-27T20:10:49.620Z,23.60
2018-01-27T20:13:20.837Z,23.59
2018-01-27T20:15:51.828Z,23.59
2018-01-27T20:18:23.091Z,23.61
2018-01-27T20:20:54.579Z,23.60
2018-01-27T20:23:25.579Z,23.60
2018-01-27T20:25:56.713Z,23.59
2018-01-27T20:28:27.006Z,23.59
2018-01-27T20:30:57.240Z,23.59
2018-01-27T20:33:27.600Z,23.60
2018-01-27T20:35:57.855Z,23.60
2018-01-27T20:38:28.240Z,23.61
2018-01-27T20:40:58.550Z,23.61
2018-01-27T20:43:28.973Z,23.61
2018-01-27T20:45:59.423Z,23.61
2018-01-27T20:48:29.816Z,23.62
2018-01-27T20:51:00.125Z,23.63
2018-01-27T20:53:30.483Z,23.77
2018-01-27T20:56:01.065Z,24.28
2018-01-27T20:58:31.320Z,24.50
2018-01-27T21:14:09.806Z,24.95
2018-01-27T21:16:40.049Z,25.02
2018-01-27T21:19:10.294Z,25.00
2018-01-27T21:21:40.720Z,25.04
2018-01-27T21:24:13.691Z,25.05
2018-01-27T21:26:44.066Z,25.07
2018-01-27T21:29:15.651Z,25.08
2018-01-27T21:31:46.885Z,25.03
2018-01-27T21:34:18.285Z,25.01
2018-01-27T21:36:50.319Z,25.04
2018-01-27T21:39:21.805Z,25.08
2018-01-27T21:41:53.497Z,25.10
2018-01-27T21:44:25.359Z,25.11
2018-01-27T21:46:56.650Z,25.13
2018-01-27T21:49:28.100Z,25.15
2018-01-27T21:51:59.623Z,25.16
2018-01-27T21:54:31.706Z,25.11
2018-01-27T21:57:02.829Z,25.11
2018-01-27T21:59:33.972Z,25.11
2018-01-27T22:02:05.335Z,25.14
2018-01-27T22:04:36.873Z,25.16
2018-01-27T22:07:08.017Z,25.19
2018-01-27T22:09:38.844Z,25.23
2018-01-27T22:12:09.804Z,25.25
2018-01-27T22:14:40.888Z,25.28
2018-01-27T22:17:11.971Z,25.27
2018-01-27T22:19:42.899Z,25.24
2018-01-27T22:22:14.040Z,25.46
2018-01-27T22:24:45.277Z,25.61
2018-01-27T22:27:16.366Z,25.55
2018-01-27T22:29:47.722Z,25.61
2018-01-27T22:32:18.884Z,25.98
2018-01-27T22:34:50.267Z,26.10
2018-01-27T22:37:21.531Z,26.00
2018-01-27T22:39:53.131Z,25.68
2018-01-27T22:42:24.010Z,25.60
2018-01-27T22:44:55.992Z,25.72
2018-01-27T22:47:27.216Z,26.06
2018-01-27T22:49:58.515Z,26.28
2018-01-27T22:52:29.845Z,26.32
2018-01-27T22:55:00.540Z,25.95
2018-01-27T22:57:31.777Z,25.51
2018-01-27T23:00:03.069Z,25.37
2018-01-27T23:02:36.524Z,25.24
2018-01-27T23:05:07.675Z,25.20
2018-01-27T23:07:38.811Z,25.09
2018-01-27T23:10:10.707Z,25.03
2018-01-27T23:12:41.880Z,25.06
2018-01-27T23:15:17.135Z,25.09
2018-01-27T23:17:48.342Z,25.13
2018-01-27T23:20:19.355Z,25.21
2018-01-27T23:23:00.767Z,25.14
2018-01-27T23:25:32.527Z,25.07
2018-01-27T23:28:04.957Z,24.97
2018-01-27T23:30:36.680Z,25.01
2018-01-27T23:35:44.285Z,25.00
2018-01-27T23:38:16.330Z,24.98
2018-01-27T23:40:47.636Z,24.97
2018-01-27T23:43:19.734Z,24.95
2018-01-27T23:45:50.640Z,24.88
2018-01-27T23:48:21.658Z,24.79
2018-01-27T23:50:52.742Z,24.81
2018-01-27T23:53:23.640Z,24.78
2018-01-27T23:55:54.632Z,24.78
2018-01-27T23:58:25.853Z,24.76
